Time;durP1;ratioP1;P1;durP2;ratioP2;P2;SDS_P1;SDS_P2;PMS_P1;PMS_P2;Temp;Humidity;BMP_temperature;BMP_pressure;BME280_temperature;BME280_humidity;BME280_pressure;Samples;Min_cycle;Max_cycle;Signal;HPM_P1;HPM_P2
2022/08/23 00:01:24;;;;;;;9.17;3.50;;;;;;;18.12;71.79;101497.84;5108548;28;20119;-77
2022/08/23 00:03:51;;;;;;;8.80;3.40;;;;;;;18.05;71.31;101503.50;5108298;28;20102;-76
2022/08/23 00:06:17;;;;;;;9.65;3.88;;;;;;;17.98;72.25;101505.47;5091336;28;20352;-78
2022/08/23 00:08:42;;;;;;;8.60;3.47;;;;;;;17.94;72.22;101495.09;5108561;28;20058;-76
2022/08/23 00:11:45;;;;;;;8.97;3.30;;;;;;;17.89;72.73;101495.78;5107321;28;20757;-77
2022/08/23 00:14:19;;;;;;;11.68;3.45;;;;;;;17.89;73.41;101501.31;5022155;28;20041;-77
2022/08/23 00:16:45;;;;;;;7.55;3.30;;;;;;;17.92;73.31;101508.34;5086380;28;20043;-77
2022/08/23 00:19:13;;;;;;;8.55;3.75;;;;;;;17.87;73.81;101503.47;5094820;28;20028;-76
2022/08/23 00:21:39;;;;;;;13.52;4.55;;;;;;;17.92;73.38;101508.34;5113150;28;20101;-76
2022/08/23 00:24:06;;;;;;;8.07;3.50;;;;;;;17.86;73.04;101507.31;5122894;28;20107;-76
2022/08/23 00:26:53;;;;;;;6.85;3.22;;;;;;;17.92;72.68;101498.06;5112027;28;20130;-76
2022/08/23 00:29:19;;;;;;;9.90;3.83;;;;;;;17.92;72.77;101505.56;5091232;28;20032;-77
2022/08/23 00:31:45;;;;;;;7.65;3.40;;;;;;;17.90;73.25;101494.69;5077028;28;20557;-77
2022/08/23 00:34:11;;;;;;;6.70;2.90;;;;;;;17.87;73.32;101506.22;5106466;28;20164;-78
2022/08/23 00:36:38;;;;;;;10.40;3.30;;;;;;;17.84;73.43;101512.25;5076989;28;20307;-76
2022/08/23 00:39:04;;;;;;;10.27;3.30;;;;;;;17.82;73.19;101510.78;5094494;28;20027;-77
2022/08/23 00:41:31;;;;;;;11.93;4.22;;;;;;;17.80;73.90;101512.91;5110650;28;20387;-77
2022/08/23 00:49:39;;;;;;;6.63;3.22;;;;;;;17.88;73.85;101507.09;5107266;28;20084;-76
2022/08/23 00:52:09;;;;;;;9.40;3.42;;;;;;;17.88;74.60;101512.63;5111794;28;20043;-76
2022/08/23 00:54:38;;;;;;;13.00;3.47;;;;;;;17.89;74.07;101506.00;5093037;28;20084;-77
2022/08/23 00:57:07;;;;;;;6.22;3.08;;;;;;;17.92;74.11;101502.78;5108760;28;20035;-77
2022/08/23 00:59:33;;;;;;;9.43;3.67;;;;;;;17.89;75.38;101508.78;5112266;28;20035;-78
2022/08/23 01:01:59;;;;;;;9.57;3.00;;;;;;;17.92;74.11;101502.78;5110729;28;20042;-77
2022/08/23 01:04:29;;;;;;;6.53;3.00;;;;;;;17.97;75.23;101508.47;5111687;28;20394;-77
2022/08/23 01:07:01;;;;;;;8.23;3.40;;;;;;;17.98;74.75;101501.88;5078384;28;20107;-78
2022/08/23 01:09:26;;;;;;;8.93;3.53;;;;;;;18.00;74.78;101500.56;5112301;28;20032;-78
2022/08/23 01:12:15;;;;;;;15.20;3.73;;;;;;;18.09;74.57;101503.88;5086394;28;20037;-77
2022/08/23 01:14:43;;;;;;;9.88;3.38;;;;;;;18.13;74.68;101513.41;5093869;28;20088;-77
2022/08/23 01:17:14;;;;;;;7.70;3.08;;;;;;;18.14;74.63;101502.09;5103502;28;20486;-77
2022/08/23 01:19:47;;;;;;;10.38;3.35;;;;;;;18.17;74.40;101492.47;5093370;28;20035;-78
2022/08/23 01:22:23;;;;;;;9.13;3.70;;;;;;;18.22;74.82;101504.56;5090039;28;20584;-78
2022/08/23 01:24:50;;;;;;;11.38;3.40;;;;;;;18.24;74.67;101499.63;5092771;28;20035;-78
2022/08/23 01:27:15;;;;;;;;;;;;;;;18.27;74.68;101504.72;5120675;28;20446;-78
2022/08/23 01:29:41;;;;;;;8.73;3.40;;;;;;;18.25;75.19;101500.50;5114008;28;19966;-78
2022/08/23 01:32:08;;;;;;;11.33;3.37;;;;;;;18.28;74.77;101508.34;5120223;28;20027;-78
2022/08/23 01:34:34;;;;;;;11.02;3.05;;;;;;;18.32;75.25;101498.50;5089644;28;20031;-79
2022/08/23 01:37:00;;;;;;;6.17;3.53;;;;;;;18.33;75.47;101500.19;5112240;28;20043;-78
2022/08/23 01:39:25;;;;;;;12.73;4.10;;;;;;;18.36;76.27;101505.31;5112024;28;20031;-76
2022/08/23 01:41:51;;;;;;;10.73;3.40;;;;;;;18.39;76.75;101497.34;5090310;28;20085;-77
2022/08/23 01:44:18;;;;;;;8.03;3.43;;;;;;;18.40;76.78;101498.22;5091581;28;20030;-78
2022/08/23 01:46:45;;;;;;;8.65;3.45;;;;;;;18.41;76.48;101491.59;5093895;28;20039;-77
2022/08/23 01:49:12;;;;;;;9.00;3.35;;;;;;;18.44;77.07;101491.09;5091154;28;20174;-77
2022/08/23 01:51:37;;;;;;;15.55;3.60;;;;;;;18.39;76.32;101480.72;5110832;28;20036;-77
2022/08/23 01:54:03;;;;;;;5.77;3.27;;;;;;;18.39;75.77;101480.72;5111335;28;20062;-76
2022/08/23 01:56:31;;;;;;;8.33;3.37;;;;;;;18.38;75.92;101492.88;5091322;28;20038;-78
2022/08/23 01:58:56;;;;;;;9.30;2.95;;;;;;;18.36;76.53;101489.47;5093460;28;20288;-77
2022/08/23 02:01:22;;;;;;;7.87;3.40;;;;;;;18.36;75.29;101491.44;5090694;28;20442;-77
2022/08/23 02:03:47;;;;;;;5.83;3.73;;;;;;;18.35;76.20;101476.69;5110914;28;20076;-77
2022/08/23 02:06:13;;;;;;;10.40;4.57;;;;;;;18.35;75.72;101482.25;5093461;28;20433;-78
2022/08/23 02:11:24;;;;;;;9.50;3.05;;;;;;;18.26;75.76;101483.59;5119481;28;20042;-78
2022/08/23 02:13:52;;;;;;;11.32;3.72;;;;;;;18.26;75.93;101482.78;5086572;28;20211;-78
2022/08/23 02:16:30;;;;;;;6.72;3.15;;;;;;;18.24;76.28;101496.88;5106163;28;20043;-76
2022/08/23 02:18:56;;;;;;;8.65;3.25;;;;;;;18.26;76.79;101483.59;5092881;28;20493;-78
2022/08/23 02:21:22;;;;;;;9.35;3.85;;;;;;;18.30;76.59;101492.31;5075568;28;20032;-77
2022/08/23 02:23:48;;;;;;;7.45;3.47;;;;;;;18.32;76.80;101481.88;5070186;28;20131;-77
2022/08/23 02:26:14;;;;;;;8.50;3.58;;;;;;;18.33;76.43;101478.00;5091907;28;20457;-77
2022/08/23 02:28:39;;;;;;;8.90;3.60;;;;;;;18.36;76.15;101485.88;5111174;28;20032;-76
2022/08/23 02:31:05;;;;;;;6.13;3.57;;;;;;;18.35;76.89;101486.97;5111512;28;20027;-75
2022/08/23 02:33:31;;;;;;;11.80;3.90;;;;;;;18.37;77.12;101488.44;5100568;28;20031;-76
2022/08/23 02:35:56;;;;;;;9.03;3.60;;;;;;;18.37;76.92;101487.56;5111366;28;20039;-78
2022/08/23 02:38:21;;;;;;;12.50;3.67;;;;;;;18.35;76.13;101486.97;5109261;28;20036;-78
2022/08/23 02:40:47;;;;;;;15.53;4.23;;;;;;;18.38;76.88;101481.78;5109153;28;20020;-75
2022/08/23 02:43:14;;;;;;;11.43;3.80;;;;;;;18.40;76.87;101485.16;5113052;28;20220;-76
2022/08/23 02:45:40;;;;;;;8.55;3.70;;;;;;;18.34;77.26;101475.00;5091862;28;20077;-79
2022/08/23 02:48:07;;;;;;;12.70;3.33;;;;;;;18.43;76.76;101489.41;5117602;28;20027;-78
2022/08/23 02:50:34;;;;;;;8.38;3.15;;;;;;;18.45;77.00;101487.22;5110968;28;20067;-77
2022/08/23 02:52:59;;;;;;;7.18;3.30;;;;;;;18.47;77.32;101487.88;5105905;28;20038;-79
2022/08/23 02:55:25;;;;;;;5.33;2.97;;;;;;;18.50;77.83;101495.72;5112345;28;20026;-78
2022/08/23 02:57:50;;;;;;;6.88;2.95;;;;;;;18.49;77.42;101489.34;5108167;28;20035;-79
2022/08/23 03:00:18;;;;;;;6.30;3.20;;;;;;;18.52;77.78;101499.13;5108851;28;20038;-79
2022/08/23 03:02:44;;;;;;;5.47;3.03;;;;;;;18.56;77.15;101500.34;5107303;28;20524;-78
2022/08/23 03:05:11;;;;;;;10.23;3.83;;;;;;;18.59;78.15;101495.19;5108436;28;20538;-78
2022/08/23 03:07:36;;;;;;;6.60;3.20;;;;;;;18.64;77.93;101500.88;5103041;28;20083;-78
2022/08/23 03:10:04;;;;;;;11.27;3.63;;;;;;;18.67;77.91;101503.16;5092411;28;20036;-78
2022/08/23 03:12:30;;;;;;;7.80;3.33;;;;;;;18.68;77.86;101499.31;5087545;28;20062;-78
2022/08/23 03:14:56;;;;;;;10.53;3.63;;;;;;;18.65;77.71;101494.25;5109404;28;20032;-78
2022/08/23 03:17:21;;;;;;;7.33;3.40;;;;;;;18.69;77.64;101494.63;5091332;28;20343;-80
2022/08/23 03:19:47;;;;;;;11.10;3.17;;;;;;;18.69;77.89;101500.16;5110031;28;20031;-79
2022/08/23 03:22:12;;;;;;;5.43;3.03;;;;;;;18.68;77.96;101495.69;5107477;28;20136;-77
2022/08/23 03:24:38;;;;;;;9.83;3.63;;;;;;;18.68;77.16;101504.03;5085586;28;20035;-76
2022/08/23 03:27:04;;;;;;;7.30;3.43;;;;;;;18.66;76.93;101506.16;5091396;28;20118;-79
2022/08/23 03:29:30;;;;;;;11.23;3.75;;;;;;;18.62;77.43;101502.19;5091658;28;20024;-77
2022/08/23 03:31:56;;;;;;;6.65;3.47;;;;;;;18.64;76.49;101502.78;5089692;28;20074;-77
2022/08/23 03:34:21;;;;;;;10.17;3.43;;;;;;;18.63;77.15;101498.31;5109959;28;20063;-78
2022/08/23 03:36:46;;;;;;;10.13;3.87;;;;;;;18.66;76.92;101506.16;5091029;28;20024;-77
2022/08/23 03:39:15;;;;;;;6.27;3.47;;;;;;;18.65;77.49;101504.47;5109978;28;20035;-78
2022/08/23 03:41:40;;;;;;;9.95;3.60;;;;;;;18.66;76.61;101501.47;5108764;28;20034;-76
2022/08/23 03:44:05;;;;;;;7.70;3.67;;;;;;;18.64;77.05;101495.31;5109451;28;20479;-77
2022/08/23 03:46:31;;;;;;;6.80;3.57;;;;;;;18.61;77.49;101498.56;5106106;28;20110;-78
2022/08/23 03:48:59;;;;;;;7.87;3.33;;;;;;;18.63;78.31;101501.09;5100785;28;20092;-77
2022/08/23 03:51:26;;;;;;;9.88;3.53;;;;;;;18.61;78.69;101500.47;5084387;28;20084;-77
2022/08/23 03:53:53;;;;;;;6.43;3.47;;;;;;;18.59;78.01;101503.50;5113301;28;20169;-78
2022/08/23 03:56:28;;;;;;;9.05;3.55;;;;;;;18.55;77.69;101507.81;5109419;28;20035;-78
2022/08/23 03:58:54;;;;;;;10.98;3.85;;;;;;;18.55;77.72;101505.03;5113013;28;20039;-76
2022/08/23 04:01:20;;;;;;;;;;;;;;;18.53;78.36;101507.22;5113491;28;20039;-77
2022/08/23 04:03:48;;;;;;;8.68;3.30;;;;;;;18.53;77.99;101512.78;5094592;28;20366;-76
2022/08/23 04:06:15;;;;;;;7.50;3.92;;;;;;;18.54;78.25;101508.03;5103869;28;20399;-77
2022/08/23 04:08:41;;;;;;;8.93;3.33;;;;;;;18.50;79.34;101520.69;5083966;28;20109;-76
2022/08/23 04:11:10;;;;;;;11.75;4.20;;;;;;;18.50;79.35;101515.13;5094451;28;20390;-76
2022/08/23 04:13:36;;;;;;;13.13;5.13;;;;;;;18.49;78.71;101510.66;5093151;28;20023;-78
2022/08/23 04:16:02;;;;;;;9.18;4.80;;;;;;;18.48;78.55;101509.84;5113346;28;20027;-76
2022/08/23 04:18:30;;;;;;;8.63;4.63;;;;;;;18.48;79.44;101515.41;5110212;28;20491;-77
2022/08/23 04:20:57;;;;;;;10.77;4.28;;;;;;;18.46;78.12;101517.53;5084646;28;20495;-77
2022/08/23 04:23:24;;;;;;;9.65;4.05;;;;;;;18.48;78.20;101518.16;5074813;28;20033;-78
2022/08/23 04:25:49;;;;;;;16.92;4.18;;;;;;;18.49;78.15;101524.53;5092749;28;20107;-77
2022/08/23 04:28:15;;;;;;;8.93;4.20;;;;;;;18.45;78.56;101518.63;5093654;28;20120;-77
2022/08/23 04:30:40;;;;;;;8.47;3.80;;;;;;;18.46;78.59;101525.84;5106188;28;20076;-77
2022/08/23 04:33:07;;;;;;;8.43;3.80;;;;;;;18.48;79.13;101529.25;5070386;28;20068;-77
2022/08/23 04:35:33;;;;;;;8.30;3.53;;;;;;;18.49;79.29;101527.31;5094308;28;20150;-77
2022/08/23 04:37:58;;;;;;;9.13;3.43;;;;;;;18.49;78.76;101522.63;5092251;28;20106;-78
2022/08/23 04:43:09;;;;;;;10.75;3.50;;;;;;;18.48;79.09;101523.72;5105003;28;20082;-76
2022/08/23 04:45:37;;;;;;;13.00;3.50;;;;;;;18.47;79.19;101530.31;5086837;28;20060;-77
2022/08/23 04:48:03;;;;;;;10.25;4.22;;;;;;;18.45;79.36;101526.09;5107801;28;20049;-76
2022/08/23 04:50:30;;;;;;;9.05;3.88;;;;;;;18.44;78.68;101535.50;5093184;28;20035;-77
2022/08/23 04:52:55;;;;;;;5.97;3.20;;;;;;;18.43;79.31;101540.22;5114295;28;20035;-78
2022/08/23 04:55:21;;;;;;;11.77;4.00;;;;;;;18.45;79.85;101540.81;5095278;28;20024;-78
2022/08/23 04:57:46;;;;;;;13.20;4.37;;;;;;;18.48;79.38;101534.81;5107174;28;20027;-77
2022/08/23 05:00:15;;;;;;;5.03;3.37;;;;;;;18.46;79.33;101542.50;5073961;28;20032;-77
2022/08/23 05:02:41;;;;;;;7.95;3.67;;;;;;;18.45;79.16;101549.13;5111102;28;20024;-77
2022/08/23 05:05:08;;;;;;;13.37;4.10;;;;;;;18.45;79.41;101548.28;5111317;28;20099;-76
2022/08/23 05:07:33;;;;;;;10.23;3.70;;;;;;;18.44;80.37;101546.59;5110564;28;20027;-78
2022/08/23 05:09:59;;;;;;;10.47;3.70;;;;;;;18.49;80.86;101553.16;5094519;28;20032;-78
2022/08/23 05:12:24;;;;;;;10.37;4.27;;;;;;;18.47;80.55;101552.50;5100477;28;20553;-77
2022/08/23 05:14:49;;;;;;;7.57;4.07;;;;;;;18.48;79.42;101553.38;5090940;28;20478;-77
2022/08/23 05:17:15;;;;;;;12.73;3.80;;;;;;;18.54;79.59;101569.09;5100444;28;20039;-77
2022/08/23 05:19:40;;;;;;;12.30;4.43;;;;;;;18.54;79.35;101563.53;5104220;28;20019;-78
2022/08/23 05:22:06;;;;;;;14.50;4.27;;;;;;;18.57;80.56;101560.31;5111505;28;20042;-76
2022/08/23 05:24:32;;;;;;;12.80;4.82;;;;;;;18.60;80.58;101562.63;5090088;28;20028;-76
2022/08/23 05:26:57;;;;;;;10.93;4.33;;;;;;;18.60;80.87;101562.63;5093574;28;20394;-77
2022/08/23 05:29:22;;;;;;;10.67;4.37;;;;;;;18.64;79.96;101566.63;5109280;28;20074;-78
2022/08/23 05:31:49;;;;;;;6.67;4.03;;;;;;;18.65;79.97;101562.78;5114282;28;20027;-78
2022/08/23 05:34:14;;;;;;;;;;;;;;;18.65;81.00;101574.72;5095826;28;20046;-79
2022/08/23 05:36:40;;;;;;;14.13;4.43;;;;;;;18.68;80.80;101565.09;5109613;28;19915;-80
2022/08/23 05:39:06;;;;;;;9.63;4.30;;;;;;;18.64;80.46;101561.94;5105437;28;20445;-79
2022/08/23 05:41:31;;;;;;;11.07;4.57;;;;;;;18.67;79.76;101575.34;5107777;28;20028;-77
2022/08/23 05:43:56;;;;;;;12.37;4.73;;;;;;;18.71;81.30;101564.59;5113352;28;20311;-79
2022/08/23 05:46:22;;;;;;;10.53;4.97;;;;;;;18.70;79.55;101572.09;5090588;28;20032;-79
2022/08/23 05:48:49;;;;;;;14.95;4.97;;;;;;;18.72;80.49;101577.44;5081638;28;20041;-79
2022/08/23 05:51:19;;;;;;;9.38;5.43;;;;;;;18.69;81.34;101577.88;5102923;28;20067;-78
2022/08/23 05:53:46;;;;;;;11.05;4.50;;;;;;;18.64;81.14;101580.50;5108610;28;20034;-78
2022/08/23 05:56:12;;;;;;;13.30;5.50;;;;;;;18.62;80.98;101580.72;5120991;28;20035;-79
2022/08/23 05:58:37;;;;;;;18.40;5.17;;;;;;;18.62;81.43;101577.97;5086531;28;20034;-79
2022/08/23 06:01:03;;;;;;;19.37;6.23;;;;;;;18.64;81.49;101578.59;5092011;28;20031;-79
2022/08/23 06:03:29;;;;;;;13.67;5.83;;;;;;;18.68;80.55;101578.97;5116497;28;20106;-78
2022/08/23 06:06:00;;;;;;;11.90;5.87;;;;;;;18.70;81.21;101580.44;5099008;28;20441;-79
2022/08/23 06:08:27;;;;;;;16.38;5.68;;;;;;;18.76;81.15;101586.97;5120871;28;20482;-78
2022/08/23 06:11:02;;;;;;;;;;;;;;;18.83;80.33;101585.81;5092265;28;20020;-79
2022/08/23 06:13:27;;;;;;;10.57;5.70;;;;;;;18.89;79.87;101584.88;5109340;28;19915;-80
2022/08/23 06:15:53;;;;;;;12.00;5.67;;;;;;;19.00;79.29;101583.25;5109211;28;20046;-79
2022/08/23 06:18:19;;;;;;;32.88;6.82;;;;;;;19.08;79.24;101580.13;5110062;28;20032;-79
2022/08/23 06:20:45;;;;;;;12.85;6.30;;;;;;;19.14;79.12;101581.97;5084535;28;20471;-80
2022/08/23 06:23:10;;;;;;;10.30;6.27;;;;;;;19.20;78.67;101581.06;5086324;28;20035;-80
2022/08/23 06:25:37;;;;;;;10.33;6.70;;;;;;;19.28;78.08;101587.16;5091738;28;20051;-80
2022/08/23 06:28:02;;;;;;;12.13;7.15;;;;;;;19.42;76.63;101585.03;5110675;28;20028;-79
2022/08/23 06:30:28;;;;;;;14.77;7.07;;;;;;;19.61;76.15;101601.38;5113277;28;20612;-80
2022/08/23 06:32:53;;;;;;;18.47;8.33;;;;;;;19.65;75.65;101597.06;5085794;28;20032;-80
2022/08/23 06:35:18;;;;;;;16.30;7.03;;;;;;;19.82;76.10;101594.41;5094653;28;20474;-80
2022/08/23 06:37:43;;;;;;;20.70;9.23;;;;;;;19.94;75.12;101592.47;5115851;28;20047;-80
2022/08/23 06:40:09;;;;;;;19.33;9.10;;;;;;;19.96;75.66;101585.59;5093814;28;20027;-79
2022/08/23 06:42:35;;;;;;;17.03;9.70;;;;;;;20.17;75.14;101586.97;5089585;28;20085;-79
2022/08/23 06:45:00;;;;;;;17.20;10.00;;;;;;;20.23;75.19;101594.34;5091456;28;20059;-79
2022/08/23 06:47:26;;;;;;;26.50;10.43;;;;;;;20.40;74.16;101581.41;5106418;28;20391;-80
2022/08/23 06:49:53;;;;;;;22.00;10.83;;;;;;;20.45;74.16;101584.31;5107901;28;20028;-80
2022/08/23 06:52:18;;;;;;;;;;;;;;;20.62;73.86;101590.81;5092781;28;20549;-80
2022/08/23 06:54:45;;;;;;;17.55;10.30;;;;;;;21.31;72.01;101593.41;5109477;28;20006;-80
2022/08/23 06:57:11;;;;;;;18.80;9.48;;;;;;;22.38;67.82;101585.53;5109897;28;20032;-80
2022/08/23 06:59:37;;;;;;;18.52;9.90;;;;;;;23.26;65.64;101600.16;5093758;28;20104;-80
2022/08/23 07:02:06;;;;;;;18.20;9.20;;;;;;;23.61;64.06;101588.53;5113882;28;20073;-81
2022/08/23 07:04:37;;;;;;;19.70;8.90;;;;;;;23.86;62.03;101591.56;5084479;28;20426;-81
2022/08/23 07:07:03;;;;;;;18.08;7.95;;;;;;;24.02;61.24;101593.41;5106372;28;20030;-80
2022/08/23 07:09:30;;;;;;;17.13;6.22;;;;;;;24.49;60.13;101600.75;5111340;28;20028;-81
2022/08/23 07:11:56;;;;;;;14.45;6.82;;;;;;;24.83;60.18;101602.13;5102988;28;20457;-81
2022/08/23 07:14:23;;;;;;;26.40;8.30;;;;;;;25.48;57.98;101599.59;5070645;28;20035;-81
2022/08/23 07:16:51;;;;;;;17.10;7.20;;;;;;;25.70;56.59;101603.00;5104459;28;20035;-80
2022/08/23 07:19:19;;;;;;;15.75;5.60;;;;;;;25.73;56.33;101607.19;5106307;28;20036;-81
2022/08/23 07:21:45;;;;;;;11.15;4.57;;;;;;;25.85;56.07;101603.00;5090073;28;20024;-79
2022/08/23 07:24:12;;;;;;;11.07;4.55;;;;;;;25.82;56.42;101605.53;5084130;28;20031;-80
2022/08/23 07:26:38;;;;;;;13.25;4.13;;;;;;;25.87;56.27;101600.75;5110902;28;20088;-79
2022/08/23 07:29:06;;;;;;;13.45;5.03;;;;;;;25.78;55.98;101610.84;5096787;28;20026;-81
2022/08/23 07:31:33;;;;;;;9.50;4.20;;;;;;;26.00;53.79;101608.69;5121321;28;20046;-80
2022/08/23 07:34:02;;;;;;;10.73;4.45;;;;;;;26.07;53.75;101620.47;5105031;28;20124;-81
2022/08/23 07:36:29;;;;;;;10.80;4.05;;;;;;;25.97;54.33;101613.97;5109378;28;20061;-80
2022/08/23 07:38:55;;;;;;;13.60;2.80;;;;;;;26.18;51.85;101612.84;5113547;28;20119;-80
2022/08/23 07:41:23;;;;;;;11.93;2.67;;;;;;;25.99;52.43;101612.56;5126431;28;20028;-81
2022/08/23 07:43:49;;;;;;;12.23;2.55;;;;;;;25.48;54.16;101621.19;5099534;28;20580;-82
2022/08/23 07:46:14;;;;;;;20.70;3.78;;;;;;;25.53;54.71;101621.19;5118827;28;20027;-81
2022/08/23 07:48:40;;;;;;;35.42;4.25;;;;;;;25.53;53.97;101624.84;5121127;28;20032;-80
2022/08/23 07:51:08;;;;;;;16.10;3.70;;;;;;;25.29;53.94;101629.25;5105037;28;20038;-81
2022/08/23 07:53:34;;;;;;;39.17;5.20;;;;;;;25.14;55.07;101614.31;5127703;28;20061;-80
2022/08/23 07:56:04;;;;;;;27.53;3.77;;;;;;;25.01;55.23;101626.88;5121265;28;20041;-81
2022/08/23 07:58:29;;;;;;;18.13;4.00;;;;;;;24.99;55.45;101628.25;5115873;28;20045;-80
2022/08/23 08:00:55;;;;;;;32.60;4.23;;;;;;;25.08;55.40;101629.44;5100544;28;20020;-80
2022/08/23 08:03:20;;;;;;;8.10;3.20;;;;;;;25.05;56.13;101633.63;5123269;28;20027;-81
2022/08/23 08:05:45;;;;;;;13.77;3.10;;;;;;;25.05;56.83;101638.38;5100862;28;20024;-80
2022/08/23 08:08:13;;;;;;;11.97;3.20;;;;;;;24.94;56.80;101633.84;5102680;28;20475;-81
2022/08/23 08:10:40;;;;;;;8.13;3.05;;;;;;;24.92;55.89;101642.53;5104027;28;20034;-80
2022/08/23 08:13:07;;;;;;;11.95;2.85;;;;;;;24.91;56.84;101648.44;5105857;28;20016;-80
2022/08/23 08:15:33;;;;;;;13.65;3.05;;;;;;;25.00;55.08;101641.16;5110892;28;20023;-79
2022/08/23 08:17:58;;;;;;;16.23;3.65;;;;;;;24.89;57.03;101647.84;5127021;28;20016;-80
2022/08/23 08:20:25;;;;;;;11.48;3.15;;;;;;;24.98;56.06;101652.66;5105201;28;20036;-80
2022/08/23 08:22:51;;;;;;;6.13;3.00;;;;;;;24.72;56.18;101659.25;5100458;28;20024;-80
2022/08/23 08:25:16;;;;;;;10.95;3.33;;;;;;;24.83;56.04;101655.38;5121043;28;20213;-79
2022/08/23 08:27:42;;;;;;;7.85;3.05;;;;;;;25.04;56.06;101659.13;5102132;28;20065;-79
2022/08/23 08:30:09;;;;;;;7.57;3.78;;;;;;;25.37;55.24;101664.34;5100422;28;20520;-80
2022/08/23 08:32:36;;;;;;;9.02;4.05;;;;;;;25.54;54.90;101665.84;5097756;28;20027;-80
2022/08/23 08:35:02;;;;;;;8.20;2.60;;;;;;;25.63;55.87;101649.28;5118654;28;20181;-80
2022/08/23 08:37:28;;;;;;;15.18;3.05;;;;;;;25.64;54.78;101665.88;5098408;28;20382;-80
2022/08/23 08:39:53;;;;;;;10.30;2.80;;;;;;;25.41;54.68;101673.91;5115109;28;20034;-81
2022/08/23 08:42:46;;;;;;;12.57;3.97;;;;;;;25.44;56.08;101673.38;5098569;28;20024;-81
2022/08/23 08:45:21;;;;;;;9.73;3.08;;;;;;;25.49;56.00;101662.16;5107546;28;20283;-81
2022/08/23 08:48:07;;;;;;;7.90;2.90;;;;;;;25.68;53.97;101667.00;5112187;28;20050;-80
2022/08/23 08:50:40;;;;;;;15.73;3.03;;;;;;;26.07;54.46;101662.59;5088240;28;20037;-80
2022/08/23 08:53:16;;;;;;;8.98;2.67;;;;;;;26.26;53.64;101666.53;5114251;28;21197;-80
2022/08/23 08:55:46;;;;;;;9.90;2.83;;;;;;;26.31;53.36;101666.53;5116862;28;20027;-80
2022/08/23 08:58:21;;;;;;;8.63;3.65;;;;;;;26.24;53.55;101670.78;5115484;28;20168;-80
2022/08/23 09:00:47;;;;;;;9.10;3.92;;;;;;;26.20;55.01;101670.47;5096435;28;20534;-80
2022/08/23 09:03:19;;;;;;;11.87;4.20;;;;;;;26.45;54.45;101666.78;5097128;28;20118;-81
2022/08/23 09:06:03;;;;;;;8.68;4.00;;;;;;;26.28;55.53;101661.47;5114646;28;20055;-80
2022/08/23 09:08:52;;;;;;;10.00;4.63;;;;;;;26.38;55.12;101655.88;5101195;28;20024;-81
2022/08/23 09:11:45;;;;;;;8.95;3.92;;;;;;;26.43;55.36;101677.50;5118079;28;20027;-80
2022/08/23 09:14:52;;;;;;;15.23;4.65;;;;;;;26.26;54.07;101671.31;5118495;28;20030;-80
2022/08/23 09:17:42;;;;;;;8.80;3.70;;;;;;;26.24;54.77;101670.78;5079592;28;20039;-81
2022/08/23 09:20:12;;;;;;;11.52;3.90;;;;;;;26.10;54.78;101676.06;5095785;28;20554;-81
2022/08/23 09:22:41;;;;;;;9.95;4.03;;;;;;;26.36;53.83;101668.50;5112391;28;20023;-80
2022/08/23 09:25:10;;;;;;;8.35;3.40;;;;;;;26.83;53.48;101675.50;5094517;28;20388;-80
2022/08/23 09:27:36;;;;;;;14.05;4.40;;;;;;;27.19;52.59;101676.28;5110862;28;20027;-81
2022/08/23 09:30:03;;;;;;;8.85;4.10;;;;;;;27.49;51.87;101681.78;5111657;28;20035;-80
2022/08/23 09:32:41;;;;;;;8.45;4.03;;;;;;;27.68;50.67;101677.19;5102178;28;20032;-82
2022/08/23 09:35:33;;;;;;;13.82;3.55;;;;;;;28.16;50.67;101673.50;5120450;28;20024;-82
2022/08/23 09:38:21;;;;;;;8.32;3.33;;;;;;;27.73;50.29;101677.13;5111697;28;20063;-82
2022/08/23 09:40:49;;;;;;;6.25;3.85;;;;;;;27.68;50.30;101674.38;5094923;28;20023;-82
2022/08/23 09:43:16;;;;;;;20.38;4.40;;;;;;;28.05;49.37;101671.88;5115326;28;20027;-81
2022/08/23 09:45:48;;;;;;;9.43;4.30;;;;;;;27.86;49.07;101670.91;5096927;28;20479;-81
2022/08/23 09:48:30;;;;;;;9.82;3.78;;;;;;;28.05;50.13;101660.59;5096209;28;20513;-81
2022/08/23 09:51:06;;;;;;;8.38;3.45;;;;;;;27.96;50.99;101665.19;5094923;28;20074;-81
2022/08/23 09:53:31;;;;;;;16.88;4.30;;;;;;;28.15;50.15;101666.16;5117704;28;20084;-81
2022/08/23 09:56:10;;;;;;;12.55;4.57;;;;;;;27.92;49.84;101661.28;5110184;28;20027;-80
2022/08/23 09:58:39;;;;;;;9.63;4.43;;;;;;;27.87;49.12;101664.97;5109080;28;20506;-81
2022/08/23 10:01:24;;;;;;;10.95;3.55;;;;;;;28.01;50.62;101666.00;5103747;28;20016;-82
2022/08/23 10:04:09;;;;;;;11.35;3.78;;;;;;;28.35;50.33;101674.47;5118340;28;20053;-80
2022/08/23 10:06:35;;;;;;;10.52;3.90;;;;;;;28.31;48.32;101676.19;5094485;28;20400;-81
2022/08/23 10:09:04;;;;;;;12.63;4.07;;;;;;;27.98;49.63;101665.75;5097394;28;20020;-80
2022/08/23 10:11:35;;;;;;;9.82;4.15;;;;;;;28.10;49.11;101660.56;5095544;28;20534;-80
2022/08/23 10:14:00;;;;;;;6.68;4.05;;;;;;;28.42;49.63;101663.72;5097461;28;20024;-82
2022/08/23 10:16:35;;;;;;;9.23;4.20;;;;;;;28.32;49.78;101660.97;5111456;28;20506;-81
2022/08/23 10:19:43;;;;;;;9.15;3.97;;;;;;;28.34;48.12;101664.34;5114760;28;20023;-82
2022/08/23 10:22:17;;;;;;;25.30;3.88;;;;;;;28.20;48.27;101660.50;5096803;28;20510;-81
2022/08/23 10:24:45;;;;;;;8.55;3.72;;;;;;;28.10;49.19;101660.56;5093661;28;20032;-81
2022/08/23 10:30:17;;;;;;;6.72;3.63;;;;;;;29.02;47.01;101663.16;5109678;28;20589;-81
2022/08/23 10:32:49;;;;;;;9.95;4.07;;;;;;;28.80;47.72;101652.34;5109070;28;20035;-81
2022/08/23 10:35:41;;;;;;;8.10;3.72;;;;;;;29.06;47.84;101656.59;5092304;28;20067;-83
2022/08/23 10:38:18;;;;;;;11.80;4.38;;;;;;;28.46;48.05;101648.75;5104085;28;20020;-83
2022/08/23 10:41:07;;;;;;;9.95;4.07;;;;;;;28.89;47.37;101646.88;5090368;28;20118;-83
2022/08/23 10:43:44;;;;;;;11.50;3.92;;;;;;;29.07;46.65;101646.97;5042764;28;20040;-80
2022/08/23 10:46:10;;;;;;;8.10;3.05;;;;;;;29.27;47.81;101634.59;5090394;28;20126;-81
2022/08/23 10:48:50;;;;;;;8.10;4.00;;;;;;;29.03;46.50;101633.78;5090419;28;20032;-80
2022/08/23 10:51:21;;;;;;;13.27;4.45;;;;;;;29.20;46.10;101643.44;5110132;28;20039;-82
2022/08/23 10:54:11;;;;;;;10.65;3.75;;;;;;;29.05;46.22;101632.34;5111793;28;20023;-86
2022/08/23 10:56:37;;;;;;;11.77;3.58;;;;;;;28.77;47.20;101638.84;5111445;28;20348;-80
2022/08/23 10:59:19;;;;;;;18.67;4.30;;;;;;;28.92;47.58;101635.00;5109369;28;20028;-82
2022/08/23 11:02:11;;;;;;;10.85;3.20;;;;;;;29.36;46.35;101628.00;5110264;28;20443;-80
2022/08/23 11:04:52;;;;;;;9.10;3.03;;;;;;;29.40;46.90;101637.50;5093481;28;20099;-80
2022/08/23 11:07:22;;;;;;;11.55;2.97;;;;;;;29.88;45.15;101629.81;5086426;28;20415;-80
2022/08/23 11:10:02;;;;;;;10.35;3.38;;;;;;;30.02;44.53;101637.19;5087937;28;20032;-80
2022/08/23 11:12:30;;;;;;;11.18;4.43;;;;;;;29.74;43.33;101635.38;5103831;28;20070;-80
2022/08/23 11:14:56;;;;;;;8.57;4.15;;;;;;;29.96;42.21;101640.41;5108467;28;20023;-80
2022/08/23 11:17:47;;;;;;;12.85;3.95;;;;;;;29.98;42.69;101632.47;5091865;28;20097;-81
2022/08/23 11:20:48;;;;;;;14.45;4.10;;;;;;;29.95;42.92;101648.06;5094258;28;20138;-83
2022/08/23 11:23:30;;;;;;;11.32;4.38;;;;;;;30.44;42.36;101633.41;5087920;28;20061;-81
2022/08/23 11:25:55;;;;;;;9.55;4.13;;;;;;;30.19;41.63;101648.00;5100807;28;20039;-82
2022/08/23 11:28:20;;;;;;;15.02;4.78;;;;;;;30.03;41.12;101638.88;5104573;28;20032;-81
2022/08/23 11:31:14;;;;;;;8.87;3.57;;;;;;;30.27;42.06;101652.94;5084658;28;20122;-80
2022/08/23 11:33:46;;;;;;;10.02;4.57;;;;;;;30.58;41.48;101639.94;5088755;28;20039;-80
2022/08/23 11:36:14;;;;;;;10.40;3.42;;;;;;;30.75;41.91;101643.03;5090400;28;20031;-81
2022/08/23 11:38:42;;;;;;;8.98;3.40;;;;;;;30.95;41.19;101648.31;5106691;28;20136;-81
2022/08/23 11:41:13;;;;;;;12.82;4.72;;;;;;;30.36;40.90;101636.94;5108221;28;20102;-80
2022/08/23 11:43:41;;;;;;;6.85;4.25;;;;;;;30.06;41.93;101637.41;5109748;28;20066;-82
2022/08/23 11:46:14;;;;;;;13.13;4.07;;;;;;;29.34;44.77;101643.56;5102840;28;20173;-80